Terminal Aerodrome Forecast
Issued by NWS

Home | Current Version | Previous Version | Graphics & Text | Print | Product List | Glossary On
Versions: 1 2 3 4 5 6 7 8 9 10 11 12 13 14 15 16 17 18 19 20
029
FTUS43 KABR 151725
TAFMBG
TAF
KMBG 151725Z 1518/1618 01019G26KT 1 1/2SM -SN BLSN OVC018
     FM152000 34018G25KT 1SM -SHSN OVC015
     FM152200 34016KT P6SM OVC025
     FM152300 33015KT P6SM BKN050
     FM160800 26007KT P6SM SKC=

USA.gov is the U.S. government's official web portal to all federal, state and local government web resources and services.